createdAt,value
2023-01-26T00:01:34.136Z,39.97
2023-01-26T00:04:01.807Z,40.04
2023-01-26T00:06:29.518Z,39.91
2023-01-26T00:08:57.423Z,40.12
2023-01-26T00:11:26.940Z,39.82
2023-01-26T00:13:55.662Z,39.96
2023-01-26T00:16:23.702Z,39.99
2023-01-26T00:18:52.708Z,40.02
2023-01-26T00:21:21.414Z,39.99
2023-01-26T00:23:49.381Z,39.92
2023-01-26T00:26:17.555Z,40.01
2023-01-26T00:28:45.304Z,40.05
2023-01-26T00:31:13.665Z,39.92
2023-01-26T00:33:41.525Z,39.88
2023-01-26T00:36:12.626Z,39.90
2023-01-26T00:38:40.996Z,39.92
2023-01-26T00:41:09.588Z,39.92
2023-01-26T00:43:37.245Z,39.99
2023-01-26T00:46:04.925Z,39.77
2023-01-26T00:48:32.534Z,39.96
2023-01-26T00:51:01.011Z,39.89
2023-01-26T00:53:30.508Z,39.89
2023-01-26T00:55:58.320Z,39.82
2023-01-26T00:58:26.074Z,39.97
2023-01-26T01:47:38.474Z,39.83
2023-01-26T01:50:07.117Z,39.80
2023-01-26T01:52:34.964Z,39.73
2023-01-26T01:55:06.177Z,39.72
2023-01-26T01:57:44.839Z,39.76
2023-01-26T02:45:38.961Z,39.62
2023-01-26T02:48:08.386Z,39.52
2023-01-26T02:50:35.099Z,39.48
2023-01-26T02:53:02.803Z,39.61
2023-01-26T02:55:31.472Z,39.59
2023-01-26T02:57:59.744Z,39.50
2023-01-26T03:47:34.906Z,39.75
2023-01-26T03:50:20.103Z,39.69
2023-01-26T03:53:06.253Z,39.87
2023-01-26T03:55:53.568Z,39.76
2023-01-26T03:58:21.369Z,39.80
2023-01-26T04:47:39.124Z,39.82
2023-01-26T04:50:07.760Z,39.75
2023-01-26T04:52:35.534Z,39.90
2023-01-26T04:55:03.196Z,39.74
2023-01-26T04:57:33.214Z,39.78
2023-01-26T05:00:03.660Z,39.81
2023-01-26T05:45:12.273Z,39.93
2023-01-26T05:47:43.022Z,39.80
2023-01-26T05:50:11.507Z,39.83
2023-01-26T05:52:40.410Z,39.86
2023-01-26T05:55:08.904Z,39.86
2023-01-26T05:57:36.666Z,39.78
2023-01-26T06:00:08.632Z,39.96
2023-01-26T06:02:48.641Z,39.77
2023-01-26T06:05:17.707Z,39.92
2023-01-26T06:07:46.740Z,39.75
2023-01-26T06:10:22.160Z,39.80
2023-01-26T06:13:17.282Z,39.83
2023-01-26T06:15:53.453Z,39.69
2023-01-26T06:18:27.348Z,39.86
2023-01-26T06:20:59.610Z,39.85
2023-01-26T06:23:27.228Z,39.76
2023-01-26T06:25:59.664Z,39.73
2023-01-26T06:28:27.343Z,39.79
2023-01-26T06:30:59.898Z,39.86
2023-01-26T06:33:30.694Z,39.80
2023-01-26T06:36:02.063Z,39.76
2023-01-26T06:38:29.831Z,39.66
2023-01-26T06:41:00.314Z,39.53
2023-01-26T06:43:27.899Z,39.63
2023-01-26T06:45:57.662Z,39.91
2023-01-26T06:48:25.833Z,39.86
2023-01-26T06:50:54.831Z,39.95
2023-01-26T06:53:30.576Z,39.88
2023-01-26T06:56:24.843Z,39.72
2023-01-26T06:59:11.629Z,39.82
2023-01-26T07:01:57.827Z,39.77
2023-01-26T07:04:26.564Z,39.80
2023-01-26T07:06:55.583Z,39.85
2023-01-26T07:09:23.169Z,39.87
2023-01-26T07:11:50.796Z,39.67
2023-01-26T07:14:18.342Z,39.55
2023-01-26T07:16:46.185Z,39.71
2023-01-26T07:19:13.819Z,39.86
2023-01-26T07:21:41.421Z,39.85
2023-01-26T07:24:11.035Z,39.81
2023-01-26T07:26:38.920Z,39.77
2023-01-26T07:29:06.578Z,39.66
2023-01-26T07:31:34.262Z,39.63
2023-01-26T07:34:02.140Z,39.84
2023-01-26T07:36:29.798Z,39.84
2023-01-26T07:38:57.371Z,39.84
2023-01-26T07:41:26.313Z,39.83
2023-01-26T07:43:54.120Z,39.72
2023-01-26T07:46:21.870Z,39.77
2023-01-26T07:48:49.536Z,39.99
2023-01-26T07:51:17.178Z,39.63
2023-01-26T07:53:45.424Z,39.72
2023-01-26T07:56:13.427Z,39.67
2023-01-26T07:58:42.470Z,39.48
2023-01-26T08:01:10.619Z,39.70
2023-01-26T08:03:38.286Z,39.78
2023-01-26T08:06:06.990Z,39.73
2023-01-26T08:08:34.719Z,39.75
2023-01-26T08:11:02.609Z,39.96
2023-01-26T08:13:35.685Z,39.51
2023-01-26T08:16:05.685Z,39.62
2023-01-26T08:18:33.710Z,39.46
2023-01-26T08:21:01.582Z,39.54
2023-01-26T08:23:29.282Z,39.59
2023-01-26T08:25:56.927Z,39.70
2023-01-26T08:28:25.023Z,39.73
2023-01-26T08:30:52.625Z,39.45
2023-01-26T08:33:21.575Z,39.45
2023-01-26T08:35:49.189Z,39.34
2023-01-26T08:38:16.950Z,39.63
2023-01-26T08:40:44.483Z,39.81
2023-01-26T08:43:12.120Z,39.74
2023-01-26T08:45:39.960Z,39.92
2023-01-26T08:48:08.004Z,39.70
2023-01-26T08:50:36.961Z,39.82
2023-01-26T08:53:04.582Z,39.61
2023-01-26T08:55:32.744Z,39.66
2023-01-26T08:58:00.806Z,39.49
2023-01-26T09:00:28.682Z,39.54
2023-01-26T09:02:59.545Z,39.37
2023-01-26T09:05:27.687Z,39.53
2023-01-26T09:07:56.801Z,39.63
2023-01-26T09:10:24.395Z,39.65
2023-01-26T09:12:52.085Z,39.88
2023-01-26T09:15:19.639Z,39.72
2023-01-26T09:17:49.111Z,39.70
2023-01-26T09:20:17.420Z,39.92
2023-01-26T09:22:45.092Z,39.84
2023-01-26T09:25:14.147Z,39.71
2023-01-26T09:27:41.807Z,39.58
2023-01-26T09:30:10.210Z,39.38
2023-01-26T09:32:37.982Z,39.13
2023-01-26T09:35:05.958Z,39.10
2023-01-26T09:37:33.820Z,39.18
2023-01-26T09:40:01.619Z,39.41
2023-01-26T09:42:36.308Z,39.51
2023-01-26T09:45:08.152Z,39.48
2023-01-26T09:47:37.618Z,39.38
2023-01-26T09:50:05.788Z,39.54
2023-01-26T09:52:33.976Z,39.50
2023-01-26T09:55:02.227Z,39.54
2023-01-26T09:57:31.297Z,39.38
2023-01-26T10:00:01.257Z,39.72
2023-01-26T10:02:36.483Z,39.68
2023-01-26T10:05:04.910Z,39.50
2023-01-26T10:07:32.869Z,39.32
2023-01-26T10:10:00.628Z,39.50
2023-01-26T10:12:29.143Z,39.54
2023-01-26T10:14:57.758Z,39.63
2023-01-26T10:17:28.494Z,39.54
2023-01-26T10:19:56.541Z,39.48
2023-01-26T10:22:25.923Z,39.47
2023-01-26T10:24:53.918Z,39.19
2023-01-26T10:27:21.634Z,39.51
2023-01-26T10:29:49.710Z,39.48
2023-01-26T10:32:18.114Z,39.60
2023-01-26T10:34:47.718Z,39.79
2023-01-26T10:37:21.464Z,39.63
2023-01-26T10:40:01.616Z,39.52
2023-01-26T10:42:29.638Z,39.25
2023-01-26T10:44:59.276Z,39.21
2023-01-26T10:47:27.800Z,39.10
2023-01-26T10:49:56.824Z,39.38
2023-01-26T10:52:25.347Z,39.61
2023-01-26T10:54:53.161Z,39.56
2023-01-26T10:57:23.848Z,39.58
2023-01-26T10:59:52.509Z,39.59
2023-01-26T11:02:21.781Z,39.74
2023-01-26T11:05:03.985Z,39.73
2023-01-26T11:07:33.930Z,39.76
2023-01-26T11:10:17.112Z,39.67
2023-01-26T11:12:44.943Z,39.65
2023-01-26T11:15:16.766Z,39.73
2023-01-26T11:17:46.482Z,39.63
2023-01-26T11:20:36.355Z,39.50
2023-01-26T11:23:05.131Z,39.51
2023-01-26T11:25:34.213Z,39.57
2023-01-26T11:28:06.972Z,39.68
2023-01-26T11:30:38.132Z,39.63
2023-01-26T11:33:08.194Z,39.57
2023-01-26T11:35:40.587Z,39.56
2023-01-26T11:38:11.326Z,39.59
2023-01-26T11:40:41.531Z,39.77
2023-01-26T11:43:21.682Z,39.65
2023-01-26T11:45:57.060Z,39.56
2023-01-26T11:48:26.256Z,39.58
2023-01-26T11:50:56.608Z,39.51
2023-01-26T11:53:37.584Z,39.69
2023-01-26T11:56:09.021Z,39.73
2023-01-26T11:58:38.024Z,39.49
2023-01-26T12:01:07.065Z,39.61
2023-01-26T12:03:36.718Z,39.62
2023-01-26T12:06:07.232Z,39.53
2023-01-26T12:08:39.196Z,39.38
2023-01-26T12:11:21.357Z,39.66
2023-01-26T12:13:49.902Z,39.58
2023-01-26T12:16:18.239Z,39.65
2023-01-26T12:18:58.855Z,39.71
2023-01-26T12:21:34.662Z,39.64
2023-01-26T12:24:03.385Z,39.64
2023-01-26T12:26:33.416Z,39.47
2023-01-26T12:29:06.164Z,39.60
2023-01-26T12:31:35.534Z,39.54
2023-01-26T12:34:03.796Z,39.61
2023-01-26T12:36:38.519Z,39.56
2023-01-26T12:39:08.793Z,39.48
2023-01-26T12:41:42.493Z,39.59
2023-01-26T12:44:14.745Z,39.37
2023-01-26T12:46:44.617Z,39.24
2023-01-26T12:49:13.581Z,39.39
2023-01-26T12:51:43.064Z,39.40
2023-01-26T12:54:13.335Z,39.34
2023-01-26T12:56:42.020Z,39.48
2023-01-26T12:59:14.868Z,39.46
2023-01-26T13:02:01.817Z,39.54
2023-01-26T13:04:29.489Z,39.69
2023-01-26T13:07:05.103Z,39.49
2023-01-26T13:09:32.743Z,39.71
2023-01-26T13:12:00.775Z,39.61
2023-01-26T13:14:32.784Z,39.49
2023-01-26T13:17:28.788Z,39.42
2023-01-26T13:19:59.821Z,39.55
2023-01-26T13:22:41.687Z,39.55
2023-01-26T13:25:16.440Z,39.42
2023-01-26T13:27:45.398Z,39.37
2023-01-26T13:30:30.026Z,39.46
2023-01-26T13:33:05.766Z,39.42
2023-01-26T13:35:33.375Z,39.52
2023-01-26T13:38:05.371Z,39.54
2023-01-26T13:40:33.369Z,39.60
2023-01-26T13:43:02.567Z,39.63
2023-01-26T13:45:30.771Z,39.51
2023-01-26T13:47:58.384Z,39.56
2023-01-26T13:50:30.165Z,39.62
2023-01-26T13:52:57.916Z,39.55
2023-01-26T13:55:27.616Z,39.06
2023-01-26T13:58:13.687Z,38.73
2023-01-26T14:00:41.497Z,38.79
2023-01-26T14:03:19.724Z,39.34
2023-01-26T14:05:52.081Z,38.96
2023-01-26T14:08:21.186Z,38.74
2023-01-26T14:10:50.674Z,39.11
2023-01-26T14:13:20.820Z,38.66
2023-01-26T14:15:48.432Z,38.69
2023-01-26T14:18:21.208Z,39.10
2023-01-26T14:20:48.795Z,38.61
2023-01-26T14:23:18.637Z,38.77
2023-01-26T14:25:47.086Z,38.87
2023-01-26T14:28:16.857Z,39.15
2023-01-26T14:30:44.572Z,39.08
2023-01-26T14:33:13.212Z,39.14
2023-01-26T14:35:40.849Z,39.39
2023-01-26T14:38:19.125Z,39.35
2023-01-26T14:40:47.044Z,39.27
2023-01-26T14:43:17.109Z,39.30
2023-01-26T14:45:44.914Z,39.21
2023-01-26T14:48:13.123Z,39.32
2023-01-26T14:50:41.042Z,39.42
2023-01-26T14:53:14.071Z,39.17
2023-01-26T14:55:41.721Z,38.86
2023-01-26T14:58:14.075Z,39.12
2023-01-26T15:00:43.337Z,39.33
2023-01-26T15:03:13.897Z,39.20
2023-01-26T15:05:42.066Z,39.23
2023-01-26T15:08:19.027Z,39.27
2023-01-26T15:10:53.824Z,39.25
2023-01-26T15:13:22.356Z,39.24
2023-01-26T15:16:02.449Z,39.37
2023-01-26T15:18:31.490Z,39.17
2023-01-26T15:21:00.443Z,39.40
2023-01-26T15:23:28.888Z,39.35
2023-01-26T15:25:56.520Z,39.26
2023-01-26T15:28:25.789Z,39.36
2023-01-26T15:30:55.603Z,39.36
2023-01-26T15:33:39.418Z,39.30
2023-01-26T15:36:08.237Z,39.14
2023-01-26T15:38:35.827Z,39.15
2023-01-26T15:41:03.447Z,39.32
2023-01-26T15:43:31.036Z,39.29
2023-01-26T15:46:01.267Z,39.27
2023-01-26T15:48:31.743Z,39.29
2023-01-26T15:50:59.374Z,39.28
2023-01-26T15:53:26.960Z,39.31
2023-01-26T15:55:56.105Z,39.37
2023-01-26T15:58:23.958Z,39.18
2023-01-26T16:00:52.340Z,39.32
2023-01-26T16:03:22.419Z,39.04
2023-01-26T16:05:50.591Z,39.26
2023-01-26T16:08:18.286Z,39.23
2023-01-26T16:10:45.928Z,39.13
2023-01-26T16:13:14.302Z,38.88
2023-01-26T16:15:43.006Z,38.60
2023-01-26T16:18:10.696Z,38.83
2023-01-26T16:20:40.290Z,38.90
2023-01-26T16:23:11.251Z,39.19
2023-01-26T16:25:40.082Z,39.19
2023-01-26T16:28:08.171Z,39.30
2023-01-26T16:30:36.124Z,38.74
2023-01-26T16:33:03.771Z,38.67
2023-01-26T16:35:31.540Z,38.75
2023-01-26T16:38:00.640Z,38.96
2023-01-26T16:40:28.228Z,39.11
2023-01-26T16:42:55.900Z,39.19
2023-01-26T16:45:24.172Z,39.37
2023-01-26T16:47:53.985Z,39.38
2023-01-26T16:50:21.532Z,39.29
2023-01-26T16:52:49.181Z,39.34
2023-01-26T16:55:18.392Z,39.40
2023-01-26T16:57:46.416Z,39.45
2023-01-26T17:00:16.048Z,39.38
2023-01-26T17:02:44.270Z,39.39
2023-01-26T17:05:14.345Z,39.47
2023-01-26T17:07:42.161Z,39.41
2023-01-26T17:10:10.821Z,39.34
2023-01-26T17:12:40.139Z,39.32
2023-01-26T17:15:08.579Z,39.47
2023-01-26T17:17:36.441Z,39.50
2023-01-26T17:20:17.917Z,39.24
2023-01-26T17:22:46.260Z,39.23
2023-01-26T17:25:16.717Z,39.25
2023-01-26T17:27:46.301Z,39.26
2023-01-26T17:30:14.496Z,39.41
2023-01-26T17:32:42.921Z,39.52
2023-01-26T17:35:11.137Z,39.37
2023-01-26T17:37:39.508Z,39.25
2023-01-26T17:40:08.140Z,39.33
2023-01-26T17:42:36.906Z,39.46
2023-01-26T17:45:07.859Z,39.22
2023-01-26T17:47:35.657Z,39.35
2023-01-26T17:50:03.284Z,39.17
2023-01-26T17:52:35.183Z,39.16
2023-01-26T17:55:06.118Z,39.14
2023-01-26T17:57:38.288Z,39.02
2023-01-26T18:00:09.361Z,38.68
2023-01-26T18:02:39.463Z,39.04
2023-01-26T18:05:08.772Z,39.11
2023-01-26T18:07:37.120Z,39.07
2023-01-26T18:10:05.426Z,39.05
2023-01-26T18:12:33.232Z,38.74
2023-01-26T18:15:00.871Z,38.54
2023-01-26T18:17:30.012Z,38.65
2023-01-26T18:19:57.997Z,38.58
2023-01-26T18:22:25.895Z,38.95
2023-01-26T18:24:54.315Z,38.77
2023-01-26T18:27:22.235Z,38.84
2023-01-26T18:29:49.952Z,38.85
2023-01-26T18:32:17.618Z,39.14
2023-01-26T18:34:47.069Z,39.09
2023-01-26T18:37:14.703Z,39.15
2023-01-26T18:39:42.414Z,39.12
2023-01-26T18:42:10.039Z,39.11
2023-01-26T18:44:38.851Z,38.98
2023-01-26T18:47:06.774Z,38.62
2023-01-26T18:49:35.332Z,38.66
2023-01-26T18:52:06.055Z,38.38
2023-01-26T18:54:34.295Z,38.66
2023-01-26T18:57:02.131Z,38.89
2023-01-26T18:59:30.044Z,39.11
2023-01-26T19:01:57.901Z,39.14
2023-01-26T19:04:25.984Z,39.21
2023-01-26T19:06:54.017Z,39.29
2023-01-26T19:09:23.559Z,39.18
2023-01-26T19:11:51.593Z,39.25
2023-01-26T19:14:19.799Z,39.22
2023-01-26T19:16:48.996Z,39.09
2023-01-26T19:19:17.131Z,39.13
2023-01-26T19:21:45.186Z,39.14
2023-01-26T19:24:12.987Z,39.13
2023-01-26T19:26:42.843Z,39.05
2023-01-26T19:29:11.540Z,39.19
2023-01-26T19:31:40.312Z,39.14
2023-01-26T19:34:10.255Z,39.04
2023-01-26T19:36:38.062Z,39.18
2023-01-26T19:39:06.452Z,39.16
2023-01-26T19:41:34.856Z,39.06
2023-01-26T19:44:04.476Z,39.06
2023-01-26T19:46:32.778Z,39.02
2023-01-26T19:49:00.891Z,39.16
2023-01-26T19:51:29.373Z,38.84
2023-01-26T19:53:57.750Z,39.03
2023-01-26T19:56:25.895Z,39.15
2023-01-26T19:58:54.480Z,39.20
2023-01-26T20:01:24.402Z,38.89
2023-01-26T20:03:52.161Z,39.14
2023-01-26T20:06:20.677Z,39.09
2023-01-26T20:08:48.476Z,39.12
2023-01-26T20:11:16.274Z,38.92
2023-01-26T20:13:44.288Z,38.95
2023-01-26T20:16:14.105Z,38.72
2023-01-26T20:18:43.208Z,38.85
2023-01-26T20:21:10.831Z,38.98
2023-01-26T20:23:45.549Z,38.75
2023-01-26T20:26:19.824Z,39.07
2023-01-26T20:28:47.707Z,39.06
2023-01-26T20:31:16.699Z,38.59
2023-01-26T20:33:47.576Z,38.66
2023-01-26T20:36:16.474Z,38.53
2023-01-26T20:38:44.184Z,38.50
2023-01-26T20:41:12.368Z,38.88
2023-01-26T20:43:49.484Z,39.02
2023-01-26T20:46:25.002Z,39.10
2023-01-26T20:48:55.546Z,39.02
2023-01-26T20:51:24.599Z,39.11
2023-01-26T20:53:52.396Z,39.16
2023-01-26T20:56:20.640Z,39.07
2023-01-26T20:58:48.439Z,39.01
2023-01-26T21:01:16.597Z,39.17
2023-01-26T21:03:44.363Z,39.03
2023-01-26T21:06:13.976Z,39.20
2023-01-26T21:08:41.770Z,39.04
2023-01-26T21:11:10.980Z,39.06
2023-01-26T21:13:41.102Z,39.14
2023-01-26T21:16:08.887Z,39.04
2023-01-26T21:18:36.597Z,39.08
2023-01-26T21:21:05.263Z,38.93
2023-01-26T21:23:34.467Z,38.87
2023-01-26T21:26:02.454Z,39.11
2023-01-26T21:28:30.624Z,39.14
2023-01-26T21:31:01.796Z,39.13
2023-01-26T21:33:29.625Z,39.10
2023-01-26T21:35:57.371Z,39.12
2023-01-26T21:38:25.263Z,39.22
2023-01-26T21:41:00.741Z,39.05
2023-01-26T21:43:28.386Z,38.97
2023-01-26T21:45:56.859Z,38.89
2023-01-26T21:48:35.619Z,39.05
2023-01-26T21:51:20.688Z,39.08
2023-01-26T21:53:48.607Z,39.14
2023-01-26T21:56:17.624Z,39.12
2023-01-26T21:59:02.695Z,39.04
2023-01-26T22:01:30.480Z,39.01
2023-01-26T22:03:58.305Z,39.15
2023-01-26T22:06:26.541Z,39.11
2023-01-26T22:08:54.342Z,39.14
2023-01-26T22:11:23.300Z,39.02
2023-01-26T22:13:50.920Z,39.10
2023-01-26T22:16:18.917Z,39.19
2023-01-26T22:18:46.627Z,39.11
2023-01-26T22:21:14.232Z,39.00
2023-01-26T22:23:41.925Z,38.82
2023-01-26T22:26:10.469Z,38.90
2023-01-26T22:28:39.562Z,38.96
2023-01-26T22:31:07.559Z,38.96
2023-01-26T22:33:35.395Z,38.90
2023-01-26T22:36:04.682Z,39.05
2023-01-26T22:38:32.541Z,38.94
2023-01-26T22:41:00.282Z,38.87
2023-01-26T22:43:27.959Z,38.98
2023-01-26T22:45:57.133Z,38.89
2023-01-26T22:48:24.923Z,38.86
2023-01-26T22:50:52.551Z,39.16
2023-01-26T22:53:20.148Z,39.00
2023-01-26T22:55:51.138Z,39.07
2023-01-26T22:58:18.798Z,39.02
2023-01-26T23:00:46.754Z,39.06
2023-01-26T23:03:16.743Z,39.18
2023-01-26T23:05:45.680Z,39.13
2023-01-26T23:08:13.384Z,39.17
2023-01-26T23:10:41.768Z,39.19
2023-01-26T23:13:10.121Z,39.10
2023-01-26T23:15:38.601Z,39.04
2023-01-26T23:18:06.505Z,39.04
2023-01-26T23:20:35.512Z,38.95
2023-01-26T23:23:03.144Z,38.95
2023-01-26T23:25:48.276Z,38.88
2023-01-26T23:28:15.987Z,38.71
2023-01-26T23:30:43.970Z,38.95
2023-01-26T23:33:12.107Z,39.03
2023-01-26T23:35:41.198Z,38.80
2023-01-26T23:38:08.813Z,38.80
2023-01-26T23:40:36.572Z,38.87
2023-01-26T23:43:16.242Z,38.91
